BME weather

Broome International Airport
Broome, Western Australia, Australia

Public forecast

Using degrees Celsius for public forecast. Weather courtesy of forecast.io.

METAR (pilot weather report)

Retrieved 2017/07/29 11:00 UTC (25 seconds ago):

YBRM 291100Z AUTO 31004KT 9999 // NCD 23/22 Q1013

TAF (pilot weather forecast)

Forecast is more than 12 hours old.

Retrieved 2017/07/28 18:36 UTC (16 hours ago):

TAF TAF YBRM 281701Z 2818/2918 VRB05KT CAVOK FM282000 VRB03KT 0300 FG BKN002 FM290000 VRB03KT 9999 BKN005 FM290100 25006KT CAVOK FM291200 VRB03KT CAVOK PROB30 2818/2820 0300 FG